createdAt,value
2022-10-11T00:03:56.699Z,70.33
2022-10-11T00:09:01.869Z,70.33
2022-10-11T00:14:06.923Z,70.49
2022-10-11T00:19:12.760Z,70.34
2022-10-11T00:24:17.338Z,70.56
2022-10-11T00:29:21.358Z,70.90
2022-10-11T00:34:25.259Z,71.21
2022-10-11T00:39:29.722Z,71.35
2022-10-11T00:44:34.287Z,71.64
2022-10-11T00:49:57.237Z,71.91
2022-10-11T00:55:06.529Z,72.03
2022-10-11T01:00:14.114Z,72.13
2022-10-11T01:05:29.605Z,72.16
2022-10-11T01:10:34.945Z,72.39
2022-10-11T01:15:48.647Z,72.46
2022-10-11T01:21:02.520Z,72.72
2022-10-11T01:26:27.569Z,72.92
2022-10-11T01:32:00.291Z,73.16
2022-10-11T01:37:17.063Z,73.26
2022-10-11T01:42:21.005Z,73.51
2022-10-11T01:47:25.571Z,73.76
2022-10-11T01:52:33.345Z,73.66
2022-10-11T01:57:46.282Z,73.60
2022-10-11T02:02:56.209Z,73.49
2022-10-11T02:08:28.140Z,73.68
2022-10-11T02:13:50.680Z,73.76
2022-10-11T02:18:57.371Z,74.01
2022-10-11T02:24:06.310Z,74.06
2022-10-11T02:29:14.271Z,74.05
2022-10-11T02:34:25.692Z,74.16
2022-10-11T02:40:04.554Z,74.16
2022-10-11T02:45:19.318Z,74.34
2022-10-11T02:50:23.732Z,74.21
2022-10-11T02:55:30.284Z,74.07
2022-10-11T03:00:34.401Z,74.08
2022-10-11T03:05:41.193Z,73.93
2022-10-11T03:10:45.789Z,73.97
2022-10-11T03:16:02.816Z,73.63
2022-10-11T03:21:07.522Z,73.95
2022-10-11T03:26:11.419Z,74.09
2022-10-11T03:31:15.324Z,73.80
2022-10-11T03:36:19.102Z,73.66
2022-10-11T03:41:22.589Z,73.91
2022-10-11T03:46:26.361Z,74.01
2022-10-11T03:51:29.899Z,73.61
2022-10-11T03:56:33.613Z,74.13
2022-10-11T04:01:38.877Z,74.04
2022-10-11T04:06:42.629Z,74.53
2022-10-11T04:11:46.277Z,74.43
2022-10-11T04:16:49.394Z,74.74
2022-10-11T04:21:53.613Z,74.39
2022-10-11T04:26:57.410Z,74.33
2022-10-11T04:32:01.566Z,74.50
2022-10-11T04:37:06.274Z,74.66
2022-10-11T04:42:10.900Z,74.59
2022-10-11T04:47:15.470Z,74.71
2022-10-11T04:52:23.339Z,74.91
2022-10-11T04:57:30.380Z,75.38
2022-10-11T05:02:35.708Z,75.25
2022-10-11T05:07:39.793Z,75.83
2022-10-11T05:12:44.256Z,76.50
2022-10-11T05:17:49.882Z,76.62
2022-10-11T05:22:54.355Z,76.91
2022-10-11T05:27:59.642Z,78.12
2022-10-11T05:33:04.259Z,78.56
2022-10-11T05:38:09.866Z,78.68
2022-10-11T05:43:15.155Z,78.67
2022-10-11T05:48:20.214Z,78.58
2022-10-11T05:53:24.694Z,78.16
2022-10-11T05:58:31.232Z,78.06
2022-10-11T06:03:35.971Z,78.06
2022-10-11T06:08:40.494Z,78.12
2022-10-11T06:13:45.081Z,78.29
2022-10-11T06:18:48.635Z,78.31
2022-10-11T06:23:59.890Z,78.38
2022-10-11T06:29:05.932Z,78.37
2022-10-11T06:34:09.982Z,78.41
2022-10-11T06:39:13.262Z,78.43
2022-10-11T06:44:17.124Z,78.65
2022-10-11T06:49:23.496Z,78.71
2022-10-11T06:54:28.689Z,78.29
2022-10-11T06:59:32.820Z,78.29
2022-10-11T07:04:39.659Z,78.43
2022-10-11T07:09:44.136Z,78.24
2022-10-11T07:14:47.681Z,78.38
2022-10-11T07:19:51.654Z,78.31
2022-10-11T07:24:55.315Z,78.24
2022-10-11T07:29:59.548Z,78.33
2022-10-11T07:35:04.060Z,78.02
2022-10-11T07:40:15.881Z,77.92
2022-10-11T07:45:21.861Z,77.72
2022-10-11T07:50:25.792Z,77.59
2022-10-11T07:55:31.586Z,76.84
2022-10-11T08:00:35.275Z,76.63
2022-10-11T08:05:39.576Z,75.98
2022-10-11T08:10:45.996Z,75.21
2022-10-11T08:15:50.300Z,74.95
2022-10-11T08:20:54.452Z,74.57
2022-10-11T08:25:58.922Z,73.81
2022-10-11T08:31:03.356Z,73.76
2022-10-11T08:36:08.884Z,73.03
2022-10-11T08:41:27.822Z,72.87
2022-10-11T08:46:39.586Z,72.75
2022-10-11T08:51:52.391Z,71.77
2022-10-11T08:56:57.293Z,71.24
2022-10-11T09:02:43.665Z,71.33
2022-10-11T09:08:02.058Z,70.93
2022-10-11T09:13:09.352Z,69.76
2022-10-11T09:18:13.549Z,69.39
2022-10-11T09:23:41.516Z,68.96
2022-10-11T09:29:01.722Z,67.42
2022-10-11T09:34:15.135Z,67.41
2022-10-11T09:39:34.300Z,67.03
2022-10-11T09:44:48.048Z,66.75
2022-10-11T09:50:00.844Z,66.13
2022-10-11T09:55:05.874Z,65.01
2022-10-11T10:00:12.972Z,63.87
2022-10-11T10:05:22.043Z,63.76
2022-10-11T10:10:39.798Z,64.23
2022-10-11T10:15:47.853Z,64.04
2022-10-11T10:20:55.424Z,63.69
2022-10-11T10:26:23.818Z,63.23
2022-10-11T10:32:02.003Z,62.25
2022-10-11T10:37:12.381Z,61.79
2022-10-11T10:42:19.072Z,61.20
2022-10-11T10:47:41.267Z,60.29
2022-10-11T10:52:48.473Z,60.65
2022-10-11T10:58:18.668Z,60.34
2022-10-11T11:04:01.508Z,59.94
2022-10-11T11:09:25.883Z,59.40
2022-10-11T11:14:53.828Z,59.28
2022-10-11T11:20:23.279Z,58.21
2022-10-11T11:25:50.074Z,57.53
2022-10-11T11:31:12.940Z,56.82
2022-10-11T11:36:27.432Z,56.71
2022-10-11T11:41:40.108Z,56.29
2022-10-11T11:46:58.794Z,55.74
2022-10-11T11:52:06.148Z,55.88
2022-10-11T11:57:34.715Z,55.63
2022-10-11T12:02:57.204Z,55.73
2022-10-11T12:08:06.992Z,55.29
2022-10-11T12:13:35.440Z,55.73
2022-10-11T12:18:57.916Z,55.24
2022-10-11T12:24:21.110Z,55.22
2022-10-11T12:29:54.801Z,55.27
2022-10-11T12:35:33.930Z,55.57
2022-10-11T12:40:43.588Z,55.57
2022-10-11T12:45:48.939Z,55.52
2022-10-11T12:51:05.826Z,55.42
2022-10-11T12:56:16.722Z,55.59
2022-10-11T13:01:24.161Z,55.88
2022-10-11T13:06:35.519Z,55.97
2022-10-11T13:11:54.160Z,55.86
2022-10-11T13:16:59.414Z,55.46
2022-10-11T13:22:07.704Z,55.25
2022-10-11T13:27:22.811Z,55.07
2022-10-11T13:32:30.748Z,54.89
2022-10-11T13:37:45.034Z,54.62
2022-10-11T13:42:52.253Z,54.39
2022-10-11T13:48:00.827Z,54.47
2022-10-11T13:53:24.177Z,54.50
2022-10-11T13:58:37.439Z,54.44
2022-10-11T14:03:48.842Z,54.27
2022-10-11T14:08:56.404Z,54.48
2022-10-11T14:14:01.044Z,54.57
2022-10-11T14:19:12.727Z,54.79
2022-10-11T14:24:19.356Z,54.85
2022-10-11T14:29:33.801Z,55.03
2022-10-11T14:34:38.670Z,55.25
2022-10-11T14:39:44.167Z,55.35
2022-10-11T14:44:48.164Z,55.62
2022-10-11T14:49:52.605Z,55.58
2022-10-11T14:54:56.810Z,55.53
2022-10-11T15:00:00.751Z,55.75
2022-10-11T15:05:04.234Z,55.89
2022-10-11T15:10:24.758Z,56.01
2022-10-11T15:15:31.169Z,56.00
2022-10-11T15:20:41.517Z,56.15
2022-10-11T15:25:46.399Z,56.56
2022-10-11T15:30:50.536Z,56.81
2022-10-11T15:35:55.465Z,57.15
2022-10-11T15:41:03.161Z,58.04
2022-10-11T15:46:08.347Z,58.46
2022-10-11T15:51:13.491Z,59.09
2022-10-11T15:56:21.255Z,59.31
2022-10-11T16:01:25.447Z,59.86
2022-10-11T16:06:30.782Z,60.22
2022-10-11T16:11:34.726Z,61.00
2022-10-11T16:16:38.527Z,61.26
2022-10-11T16:21:41.793Z,61.67
2022-10-11T16:26:46.033Z,62.12
2022-10-11T16:31:50.469Z,62.51
2022-10-11T16:36:55.725Z,63.04
2022-10-11T16:41:59.455Z,63.30
2022-10-11T16:47:06.810Z,63.72
2022-10-11T16:52:15.780Z,64.27
2022-10-11T16:57:20.386Z,64.51
2022-10-11T17:02:32.263Z,64.96
2022-10-11T17:07:36.548Z,65.51
2022-10-11T17:12:40.835Z,65.20
2022-10-11T17:17:46.081Z,65.71
2022-10-11T17:22:51.828Z,66.00
2022-10-11T17:27:57.396Z,66.44
2022-10-11T17:33:03.576Z,66.54
2022-10-11T17:38:08.455Z,66.35
2022-10-11T17:43:12.198Z,67.40
2022-10-11T17:48:15.935Z,67.45
2022-10-11T17:53:19.837Z,67.87
2022-10-11T17:58:23.542Z,68.07
2022-10-11T18:03:30.904Z,67.80
2022-10-11T18:08:40.464Z,68.17
2022-10-11T18:13:48.418Z,68.18
2022-10-11T18:18:52.573Z,68.37
2022-10-11T18:24:00.417Z,68.59
2022-10-11T18:29:04.181Z,68.88
2022-10-11T18:34:11.017Z,68.79
2022-10-11T18:39:15.536Z,69.13
2022-10-11T18:44:20.006Z,69.10
2022-10-11T18:49:23.891Z,69.82
2022-10-11T18:54:28.154Z,69.66
2022-10-11T18:59:33.634Z,69.79
2022-10-11T19:04:43.044Z,70.08
2022-10-11T19:09:50.833Z,70.40
2022-10-11T19:14:56.500Z,70.65
2022-10-11T19:20:02.206Z,70.41
2022-10-11T19:25:08.257Z,70.34
2022-10-11T19:30:13.466Z,70.46
2022-10-11T19:35:20.150Z,70.90
2022-10-11T19:40:29.154Z,71.11
2022-10-11T19:45:36.245Z,71.15
2022-10-11T19:50:40.074Z,70.88
2022-10-11T19:55:46.463Z,71.11
2022-10-11T20:01:01.383Z,71.19
2022-10-11T20:06:08.883Z,71.19
2022-10-11T20:11:17.132Z,71.22
2022-10-11T20:16:27.776Z,71.45
2022-10-11T20:21:33.536Z,71.65
2022-10-11T20:26:38.135Z,71.59
2022-10-11T20:31:43.983Z,72.14
2022-10-11T20:36:49.214Z,72.36
2022-10-11T20:41:54.595Z,72.05
2022-10-11T20:47:03.728Z,71.86
2022-10-11T20:52:08.868Z,71.97
2022-10-11T20:57:12.320Z,72.10
2022-10-11T21:02:18.918Z,72.09
2022-10-11T21:07:22.355Z,72.46
2022-10-11T21:12:26.067Z,72.59
2022-10-11T21:17:29.723Z,72.82
2022-10-11T21:22:34.189Z,73.02
2022-10-11T21:27:39.459Z,73.42
2022-10-11T21:32:45.472Z,73.08
2022-10-11T21:37:49.882Z,72.95
2022-10-11T21:42:54.584Z,73.27
2022-10-11T21:47:59.373Z,73.32
2022-10-11T21:53:03.300Z,73.22
2022-10-11T21:58:07.019Z,73.15
2022-10-11T22:03:11.410Z,73.30
2022-10-11T22:08:22.012Z,73.28
2022-10-11T22:13:27.564Z,73.52
2022-10-11T22:18:33.622Z,73.47
2022-10-11T22:23:37.916Z,73.62
2022-10-11T22:28:41.727Z,73.55
2022-10-11T22:38:54.964Z,73.76
2022-10-11T22:43:58.177Z,73.75
2022-10-11T22:49:01.814Z,73.65
2022-10-11T22:54:06.084Z,73.82
2022-10-11T22:59:10.106Z,74.34
2022-10-11T23:04:13.856Z,74.20
2022-10-11T23:09:18.013Z,74.48
2022-10-11T23:14:22.270Z,74.28
2022-10-11T23:19:25.964Z,74.23
2022-10-11T23:24:30.002Z,74.32
2022-10-11T23:29:34.065Z,74.30
2022-10-11T23:34:37.977Z,74.56
2022-10-11T23:39:42.252Z,74.21
2022-10-11T23:44:46.799Z,74.51
2022-10-11T23:49:50.437Z,74.45
2022-10-11T23:54:54.170Z,74.52
2022-10-11T23:59:58.289Z,74.55
